createdAt,value
2024-02-02T00:00:57.386Z,11.80
2024-02-02T00:03:24.432Z,7.32
2024-02-02T00:05:51.446Z,7.68
2024-02-02T00:08:18.333Z,4.78
2024-02-02T00:10:45.180Z,7.50
2024-02-02T00:13:14.068Z,6.28
2024-02-02T00:15:40.868Z,7.97
2024-02-02T00:18:07.928Z,5.13
2024-02-02T00:20:35.050Z,9.10
2024-02-02T00:23:02.834Z,7.90
2024-02-02T00:25:29.774Z,7.70
2024-02-02T00:27:56.480Z,12.90
2024-02-02T00:30:24.586Z,4.57
2024-02-02T00:32:51.511Z,8.02
2024-02-02T00:35:18.383Z,3.97
2024-02-02T00:37:45.662Z,6.53
2024-02-02T00:40:12.672Z,7.32
2024-02-02T00:42:39.767Z,8.98
2024-02-02T00:45:07.460Z,4.10
2024-02-02T00:47:35.776Z,8.15
2024-02-02T00:50:02.769Z,4.78
2024-02-02T00:52:29.680Z,10.48
2024-02-02T00:54:56.530Z,8.77
2024-02-02T00:57:23.374Z,7.30
2024-02-02T00:59:51.651Z,11.00
2024-02-02T01:02:19.801Z,8.38
2024-02-02T01:04:48.019Z,6.97
2024-02-02T01:07:16.702Z,7.65
2024-02-02T01:09:44.106Z,9.45
2024-02-02T01:12:11.351Z,11.23
2024-02-02T01:14:39.079Z,5.15
2024-02-02T01:17:06.987Z,8.27
2024-02-02T01:19:34.195Z,4.20
2024-02-02T01:22:03.343Z,6.80
2024-02-02T01:24:30.216Z,7.20
2024-02-02T01:26:57.230Z,10.75
2024-02-02T01:29:25.522Z,11.55
2024-02-02T01:31:52.599Z,6.32
2024-02-02T01:34:19.506Z,8.52
2024-02-02T01:36:46.466Z,5.03
2024-02-02T01:39:15.379Z,10.10
2024-02-02T01:41:42.293Z,4.90
2024-02-02T01:44:09.385Z,4.18
2024-02-02T01:46:36.407Z,6.28
2024-02-02T01:49:03.408Z,4.88
2024-02-02T01:51:30.446Z,6.70
2024-02-02T01:53:57.717Z,8.10
2024-02-02T01:56:25.865Z,12.77
2024-02-02T01:58:53.094Z,5.72
2024-02-02T02:01:20.066Z,8.18
2024-02-02T02:03:47.203Z,6.20
2024-02-02T02:06:14.923Z,7.13
2024-02-02T02:08:42.846Z,8.02
2024-02-02T02:11:09.746Z,11.85
2024-02-02T02:13:38.211Z,8.57
2024-02-02T02:16:05.460Z,6.38
2024-02-02T02:18:32.549Z,7.05
2024-02-02T02:20:59.795Z,6.32
2024-02-02T02:23:27.975Z,9.50
2024-02-02T02:25:54.867Z,10.63
2024-02-02T02:28:21.788Z,10.73
2024-02-02T02:30:48.717Z,6.45
2024-02-02T02:33:15.856Z,9.27
2024-02-02T02:35:42.995Z,9.75
2024-02-02T02:38:09.840Z,6.68
2024-02-02T02:40:38.102Z,6.25
2024-02-02T02:43:05.262Z,8.45
2024-02-02T02:45:32.055Z,12.05
2024-02-02T02:47:58.996Z,5.18
2024-02-02T02:50:25.850Z,6.05
2024-02-02T02:52:52.683Z,11.00
2024-02-02T02:55:21.457Z,11.38
2024-02-02T02:57:49.661Z,8.38
2024-02-02T03:00:16.864Z,5.68
2024-02-02T03:02:44.038Z,11.93
2024-02-02T03:05:10.919Z,9.55
2024-02-02T03:07:37.948Z,8.25
2024-02-02T03:10:05.080Z,8.82
2024-02-02T03:12:32.249Z,11.93
2024-02-02T03:15:00.622Z,8.00
2024-02-02T03:17:27.477Z,10.35
2024-02-02T03:19:54.833Z,7.35
2024-02-02T03:22:22.064Z,7.13
2024-02-02T03:24:49.247Z,9.52
2024-02-02T03:27:16.265Z,16.83
2024-02-02T03:29:43.017Z,14.70
2024-02-02T03:32:11.315Z,9.75
2024-02-02T03:34:38.411Z,9.75
2024-02-02T03:37:05.576Z,12.60
2024-02-02T03:39:34.087Z,13.00
2024-02-02T03:42:01.373Z,9.18
2024-02-02T03:44:28.317Z,10.52
2024-02-02T03:46:55.084Z,14.27
2024-02-02T03:49:24.874Z,9.50
2024-02-02T03:51:51.633Z,10.13
2024-02-02T03:54:18.515Z,12.60
2024-02-02T03:56:46.605Z,8.02
2024-02-02T03:59:13.641Z,14.68
2024-02-02T04:01:40.366Z,13.55
2024-02-02T04:04:08.076Z,10.32
2024-02-02T04:06:36.759Z,9.75
2024-02-02T04:09:05.122Z,8.27
2024-02-02T04:11:32.229Z,6.28
2024-02-02T04:13:58.918Z,14.57
2024-02-02T04:16:25.711Z,10.95
2024-02-02T04:18:53.096Z,10.13
2024-02-02T04:21:19.987Z,10.35
2024-02-02T04:23:48.709Z,8.40
2024-02-02T04:26:15.417Z,8.77
2024-02-02T04:28:42.290Z,7.30
2024-02-02T04:31:09.075Z,10.45
2024-02-02T04:33:36.259Z,8.73
2024-02-02T04:36:03.683Z,12.27
2024-02-02T04:38:30.664Z,8.88
2024-02-02T04:40:58.895Z,8.05
2024-02-02T04:43:25.728Z,7.65
2024-02-02T04:45:52.541Z,5.78
2024-02-02T04:48:20.087Z,12.27
2024-02-02T04:50:47.775Z,8.30
2024-02-02T04:53:14.742Z,9.13
2024-02-02T04:55:41.669Z,8.75
2024-02-02T04:58:09.920Z,8.27
2024-02-02T05:00:36.902Z,12.55
2024-02-02T05:03:04.525Z,5.72
2024-02-02T05:05:31.482Z,6.80
2024-02-02T05:07:58.506Z,13.88
2024-02-02T05:10:25.390Z,6.95
2024-02-02T05:12:52.097Z,6.13
2024-02-02T05:15:20.380Z,6.82
2024-02-02T05:17:47.303Z,8.65
2024-02-02T05:20:14.214Z,7.72
2024-02-02T05:22:41.928Z,7.43
2024-02-02T05:25:08.713Z,8.95
2024-02-02T05:27:35.576Z,5.40
2024-02-02T05:30:02.835Z,10.05
2024-02-02T05:32:31.634Z,6.90
2024-02-02T05:34:58.600Z,7.68
2024-02-02T05:37:26.014Z,8.52
2024-02-02T05:39:52.827Z,7.68
2024-02-02T05:42:20.315Z,10.80
2024-02-02T05:44:47.143Z,9.63
2024-02-02T05:47:13.968Z,5.90
2024-02-02T05:49:42.353Z,8.68
2024-02-02T05:52:09.740Z,8.38
2024-02-02T05:54:36.818Z,7.82
2024-02-02T05:57:04.373Z,6.35
2024-02-02T05:59:31.328Z,9.07
2024-02-02T06:01:58.104Z,7.63
2024-02-02T06:04:24.979Z,7.63
2024-02-02T06:06:53.229Z,9.73
2024-02-02T06:09:20.141Z,6.97
2024-02-02T06:11:47.029Z,5.63
2024-02-02T06:14:15.579Z,5.93
2024-02-02T06:16:42.460Z,7.72
2024-02-02T06:19:09.352Z,5.03
2024-02-02T06:21:36.734Z,8.18
2024-02-02T06:24:07.771Z,6.45
2024-02-02T06:26:35.046Z,9.98
2024-02-02T06:29:01.852Z,9.00
2024-02-02T06:31:29.118Z,5.72
2024-02-02T06:33:56.139Z,4.57
2024-02-02T06:36:25.952Z,5.75
2024-02-02T06:38:52.975Z,6.32
2024-02-02T06:41:22.548Z,7.25
2024-02-02T06:43:49.411Z,3.05
2024-02-02T06:46:16.201Z,5.70
2024-02-02T06:48:44.189Z,8.05
2024-02-02T06:51:11.293Z,4.97
2024-02-02T06:53:38.240Z,5.93
2024-02-02T06:56:10.113Z,5.55
2024-02-02T07:01:10.054Z,8.40
2024-02-02T07:03:37.071Z,4.07
2024-02-02T07:06:06.917Z,5.05
2024-02-02T07:08:34.146Z,5.53
2024-02-02T07:11:06.204Z,8.18
2024-02-02T07:13:46.377Z,10.00
2024-02-02T07:16:15.686Z,9.75
2024-02-02T07:18:43.677Z,5.65
2024-02-02T07:21:13.644Z,11.80
2024-02-02T07:23:42.603Z,6.72
2024-02-02T07:26:21.656Z,8.05
2024-02-02T07:28:49.978Z,7.15
2024-02-02T07:31:37.849Z,8.90
2024-02-02T07:34:23.599Z,8.23
2024-02-02T07:36:50.519Z,7.85
2024-02-02T07:39:27.181Z,6.90
2024-02-02T07:41:54.059Z,5.93
2024-02-02T07:44:22.995Z,5.50
2024-02-02T07:46:49.940Z,8.15
2024-02-02T07:49:16.730Z,7.13
2024-02-02T07:51:44.576Z,9.13
2024-02-02T07:54:11.766Z,6.80
2024-02-02T07:56:38.583Z,4.82
2024-02-02T07:59:05.420Z,5.60
2024-02-02T08:01:34.757Z,12.63
2024-02-02T08:04:02.906Z,7.88
2024-02-02T08:06:30.231Z,8.05
2024-02-02T08:08:58.464Z,8.98
2024-02-02T08:11:27.023Z,9.35
2024-02-02T08:13:53.935Z,8.18
2024-02-02T08:16:20.983Z,10.43
2024-02-02T08:18:49.699Z,8.05
2024-02-02T08:21:16.640Z,10.27
2024-02-02T08:23:44.174Z,8.07
2024-02-02T08:26:11.014Z,9.20
2024-02-02T08:28:48.344Z,12.18
2024-02-02T08:31:18.701Z,12.10
2024-02-02T08:33:45.686Z,10.77
2024-02-02T08:36:14.821Z,12.95
2024-02-02T08:38:42.420Z,9.13
2024-02-02T08:41:09.314Z,8.88
2024-02-02T08:43:36.739Z,7.80
2024-02-02T08:46:11.886Z,7.82
2024-02-02T08:48:43.456Z,9.57
2024-02-02T08:51:53.195Z,8.18
2024-02-02T08:54:35.450Z,8.27
2024-02-02T08:57:30.872Z,11.40
2024-02-02T09:00:05.986Z,9.45
2024-02-02T09:02:54.232Z,12.27
2024-02-02T09:05:22.449Z,14.23
2024-02-02T09:07:53.282Z,10.55
2024-02-02T09:11:09.310Z,10.02
2024-02-02T09:13:36.712Z,9.52
2024-02-02T09:16:03.965Z,8.43
2024-02-02T09:18:34.734Z,6.82
2024-02-02T09:21:02.558Z,11.40
2024-02-02T09:23:32.693Z,7.97
2024-02-02T09:26:01.969Z,10.35
2024-02-02T09:28:39.725Z,9.02
2024-02-02T09:31:07.986Z,7.90
2024-02-02T09:33:53.620Z,11.25
2024-02-02T09:36:27.083Z,9.35
2024-02-02T09:38:58.530Z,8.55
2024-02-02T09:41:46.606Z,11.15
2024-02-02T09:44:33.381Z,10.20
2024-02-02T09:47:07.438Z,10.07
2024-02-02T09:49:51.068Z,8.90
2024-02-02T09:52:35.913Z,11.25
2024-02-02T09:55:14.549Z,8.55
2024-02-02T09:57:49.059Z,15.38
2024-02-02T10:00:27.751Z,9.95
2024-02-02T10:03:06.117Z,14.52
2024-02-02T10:05:45.599Z,11.93
2024-02-02T10:08:37.820Z,10.07
2024-02-02T10:11:25.967Z,10.00
2024-02-02T10:14:07.663Z,10.35
2024-02-02T10:16:45.456Z,9.68
2024-02-02T10:19:33.790Z,12.40
2024-02-02T10:22:14.213Z,11.13
2024-02-02T10:24:58.683Z,14.13
2024-02-02T10:27:38.759Z,12.00
2024-02-02T10:30:17.872Z,14.30
2024-02-02T10:33:17.531Z,10.32
2024-02-02T10:35:52.995Z,11.50
2024-02-02T10:38:31.528Z,14.73
2024-02-02T10:41:09.482Z,8.82
2024-02-02T10:43:49.041Z,14.15
2024-02-02T10:46:27.457Z,12.07
2024-02-02T10:49:18.058Z,10.63
2024-02-02T10:51:55.874Z,12.65
2024-02-02T10:54:43.879Z,9.88
2024-02-02T10:57:24.213Z,12.73
2024-02-02T11:00:03.897Z,12.13
2024-02-02T11:02:37.748Z,14.55
2024-02-02T11:05:17.368Z,8.05
2024-02-02T11:07:48.489Z,9.75
2024-02-02T11:10:19.295Z,10.77
2024-02-02T11:12:54.344Z,9.50
2024-02-02T11:15:33.531Z,11.18
2024-02-02T11:18:15.269Z,9.93
2024-02-02T11:20:52.057Z,10.93
2024-02-02T11:23:30.154Z,9.73
2024-02-02T11:26:08.177Z,15.10
2024-02-02T11:28:45.002Z,15.60
2024-02-02T11:31:26.323Z,10.95
2024-02-02T11:34:05.071Z,13.80
2024-02-02T11:36:52.187Z,10.38
2024-02-02T11:39:33.358Z,14.32
2024-02-02T11:42:02.611Z,11.57
2024-02-02T11:44:30.600Z,12.70
2024-02-02T11:46:59.757Z,11.07
2024-02-02T11:49:31.984Z,11.23
2024-02-02T11:52:06.056Z,12.65
2024-02-02T11:54:39.612Z,9.75
2024-02-02T11:57:12.916Z,13.45
2024-02-02T11:59:44.871Z,16.52
2024-02-02T12:02:31.105Z,15.45
2024-02-02T12:05:02.639Z,13.82
2024-02-02T12:07:39.934Z,9.43
2024-02-02T12:10:10.892Z,12.27
2024-02-02T12:12:44.725Z,13.98
2024-02-02T12:15:12.286Z,12.23
2024-02-02T12:17:40.841Z,9.55
2024-02-02T12:20:10.935Z,9.15
2024-02-02T12:22:38.475Z,10.85
2024-02-02T12:25:10.800Z,10.50
2024-02-02T12:27:38.287Z,13.00
2024-02-02T12:30:09.941Z,9.63
2024-02-02T12:32:37.161Z,13.32
2024-02-02T12:35:06.879Z,11.95
2024-02-02T12:37:45.489Z,10.90
2024-02-02T12:40:13.811Z,9.23
2024-02-02T12:42:40.747Z,9.75
2024-02-02T12:45:12.035Z,9.95
2024-02-02T12:47:39.789Z,14.07
2024-02-02T12:50:16.060Z,10.85
2024-02-02T12:52:44.004Z,10.90
2024-02-02T12:55:11.460Z,11.52
2024-02-02T12:57:38.472Z,11.55
2024-02-02T13:00:06.828Z,13.57
2024-02-02T13:02:33.758Z,13.45
2024-02-02T13:05:01.755Z,10.85
2024-02-02T13:07:30.106Z,13.82
2024-02-02T13:09:59.163Z,13.85
2024-02-02T13:12:28.390Z,13.38
2024-02-02T13:14:55.492Z,15.00
2024-02-02T13:17:22.382Z,12.63
2024-02-02T13:19:49.494Z,20.45
2024-02-02T13:22:20.706Z,11.30
2024-02-02T13:24:51.696Z,14.63
2024-02-02T13:27:20.231Z,12.18
2024-02-02T13:29:50.345Z,12.48
2024-02-02T13:32:18.641Z,14.77
2024-02-02T13:34:45.571Z,11.23
2024-02-02T13:37:25.962Z,15.88
2024-02-02T13:39:56.313Z,14.55
2024-02-02T13:42:24.213Z,15.60
2024-02-02T13:44:51.123Z,16.95
2024-02-02T13:47:21.723Z,13.88
2024-02-02T13:49:54.165Z,15.82
2024-02-02T13:52:21.060Z,12.93
2024-02-02T13:54:48.456Z,12.70
2024-02-02T13:57:17.305Z,16.23
2024-02-02T13:59:45.378Z,13.48
2024-02-02T14:02:12.284Z,12.77
2024-02-02T14:04:40.682Z,14.18
2024-02-02T14:07:14.809Z,12.68
2024-02-02T14:09:42.488Z,16.25
2024-02-02T14:12:09.742Z,15.00
2024-02-02T14:14:38.110Z,14.68
2024-02-02T14:17:06.030Z,15.18
2024-02-02T14:19:33.793Z,18.80
2024-02-02T14:22:05.384Z,13.90
2024-02-02T14:24:32.371Z,13.07
2024-02-02T14:27:02.124Z,14.48
2024-02-02T14:29:41.670Z,13.75
2024-02-02T14:32:09.068Z,15.65
2024-02-02T14:34:36.448Z,15.43
2024-02-02T14:37:09.516Z,13.80
2024-02-02T14:39:36.514Z,16.35
2024-02-02T14:42:04.149Z,16.83
2024-02-02T14:44:32.885Z,11.98
2024-02-02T14:47:02.219Z,10.70
2024-02-02T14:49:29.340Z,16.42
2024-02-02T14:51:56.361Z,13.13
2024-02-02T14:54:25.398Z,13.73
2024-02-02T14:56:53.012Z,13.70
2024-02-02T14:59:30.198Z,13.18
2024-02-02T15:01:57.625Z,10.88
2024-02-02T15:04:26.004Z,10.80
2024-02-02T15:06:53.545Z,15.57
2024-02-02T15:09:20.907Z,11.90
2024-02-02T15:11:47.746Z,11.90
2024-02-02T15:14:15.761Z,10.75
2024-02-02T15:16:42.665Z,15.02
2024-02-02T15:19:10.078Z,9.73
2024-02-02T15:21:38.567Z,11.65
2024-02-02T15:24:06.154Z,11.38
2024-02-02T15:26:36.292Z,10.10
2024-02-02T15:29:04.503Z,8.20
2024-02-02T15:31:31.313Z,7.50
2024-02-02T15:33:58.623Z,9.00
2024-02-02T15:36:27.199Z,9.80
2024-02-02T15:39:07.580Z,8.77
2024-02-02T15:41:42.312Z,8.73
2024-02-02T15:44:09.258Z,8.35
2024-02-02T15:46:36.134Z,9.77
2024-02-02T15:49:03.223Z,8.52
2024-02-02T15:51:31.915Z,5.78
2024-02-02T15:54:00.250Z,7.20
2024-02-02T15:56:27.105Z,6.97
2024-02-02T15:58:54.468Z,5.00
2024-02-02T16:01:21.498Z,5.32
2024-02-02T16:03:48.678Z,5.47
2024-02-02T16:06:22.966Z,6.82
2024-02-02T16:08:51.096Z,3.97
2024-02-02T16:11:20.551Z,4.50
2024-02-02T16:13:47.716Z,3.58
2024-02-02T16:16:14.668Z,5.00
2024-02-02T16:18:41.776Z,5.45
2024-02-02T16:21:08.846Z,5.78
2024-02-02T16:23:35.784Z,4.55
2024-02-02T16:26:02.667Z,5.25
2024-02-02T16:28:31.308Z,4.68
2024-02-02T16:30:58.038Z,4.82
2024-02-02T16:33:25.337Z,3.97
2024-02-02T16:35:52.367Z,4.05
2024-02-02T16:38:19.201Z,3.60
2024-02-02T16:40:46.341Z,3.63
2024-02-02T16:43:13.389Z,4.40
2024-02-02T16:45:41.795Z,5.45
2024-02-02T16:48:09.831Z,4.43
2024-02-02T16:50:38.181Z,3.47
2024-02-02T16:53:06.707Z,4.25
2024-02-02T16:55:33.673Z,3.85
2024-02-02T16:58:01.106Z,4.25
2024-02-02T17:00:28.120Z,4.95
2024-02-02T17:02:56.442Z,6.13
2024-02-02T17:05:23.251Z,4.45
2024-02-02T17:07:50.148Z,4.15
2024-02-02T17:10:17.040Z,6.25
2024-02-02T17:12:44.093Z,4.05
2024-02-02T17:15:11.188Z,6.05
2024-02-02T17:17:41.512Z,6.70
2024-02-02T17:20:12.404Z,4.55
2024-02-02T17:22:44.311Z,4.03
2024-02-02T17:25:11.775Z,7.10
2024-02-02T17:27:39.045Z,4.10
2024-02-02T17:30:08.007Z,5.63
2024-02-02T17:32:39.626Z,5.63
2024-02-02T17:35:09.427Z,5.88
2024-02-02T17:37:36.640Z,5.97
2024-02-02T17:40:05.076Z,7.15
2024-02-02T17:42:32.185Z,6.78
2024-02-02T17:44:59.150Z,5.72
2024-02-02T17:47:26.114Z,5.18
2024-02-02T17:49:56.608Z,7.15
2024-02-02T17:52:26.371Z,8.48
2024-02-02T17:54:53.193Z,8.38
2024-02-02T17:57:20.553Z,9.25
2024-02-02T17:59:47.491Z,6.85
2024-02-02T18:02:14.299Z,7.82
2024-02-02T18:04:41.301Z,8.75
2024-02-02T18:07:10.593Z,9.48
2024-02-02T18:09:40.972Z,7.32
2024-02-02T18:12:11.653Z,8.10
2024-02-02T18:14:38.494Z,10.27
2024-02-02T18:17:05.408Z,7.75
2024-02-02T18:19:32.606Z,10.18
2024-02-02T18:21:59.655Z,10.20
2024-02-02T18:24:26.408Z,9.63
2024-02-02T18:26:54.854Z,8.43
2024-02-02T18:29:21.740Z,9.75
2024-02-02T18:31:50.061Z,6.47
2024-02-02T18:34:17.139Z,9.65
2024-02-02T18:36:44.184Z,10.70
2024-02-02T18:39:13.988Z,10.85
2024-02-02T18:41:41.538Z,8.35
2024-02-02T18:44:14.020Z,10.43
2024-02-02T18:46:43.514Z,9.73
2024-02-02T18:49:10.717Z,11.95
2024-02-02T18:51:37.991Z,13.13
2024-02-02T18:54:06.092Z,9.65
2024-02-02T18:56:33.141Z,13.23
2024-02-02T18:59:00.254Z,14.23
2024-02-02T19:01:31.664Z,17.60
2024-02-02T19:03:58.843Z,14.10
2024-02-02T19:06:26.015Z,15.05
2024-02-02T19:08:53.191Z,11.75
2024-02-02T19:11:21.072Z,12.52
2024-02-02T19:13:48.517Z,12.68
2024-02-02T19:16:19.140Z,12.18
2024-02-02T19:18:47.555Z,14.10
2024-02-02T19:21:19.524Z,11.02
2024-02-02T19:23:46.401Z,10.25
2024-02-02T19:26:13.284Z,12.45
2024-02-02T19:28:40.350Z,16.50
2024-02-02T19:31:07.526Z,12.95
2024-02-02T19:33:34.716Z,11.60
2024-02-02T19:36:03.163Z,14.40
2024-02-02T19:38:32.936Z,9.85
2024-02-02T19:40:59.843Z,14.60
2024-02-02T19:43:26.707Z,12.95
2024-02-02T19:45:54.934Z,11.43
2024-02-02T19:48:21.820Z,13.88
2024-02-02T19:50:48.964Z,11.50
2024-02-02T19:53:17.100Z,11.68
2024-02-02T19:55:43.976Z,13.27
2024-02-02T19:58:11.193Z,13.10
2024-02-02T20:00:38.909Z,11.15
2024-02-02T20:03:06.857Z,13.40
2024-02-02T20:05:34.540Z,13.35
2024-02-02T20:08:02.904Z,9.40
2024-02-02T20:10:31.403Z,13.43
2024-02-02T20:12:58.719Z,10.65
2024-02-02T20:15:38.041Z,13.43
2024-02-02T20:18:05.516Z,10.68
2024-02-02T20:20:35.203Z,10.57
2024-02-02T20:23:02.255Z,18.00
2024-02-02T20:25:29.522Z,14.90
2024-02-02T20:28:00.507Z,12.43
2024-02-02T20:30:27.544Z,11.68
2024-02-02T20:32:55.728Z,14.43
2024-02-02T20:37:51.570Z,13.10
2024-02-02T20:40:19.323Z,13.65
2024-02-02T20:42:47.368Z,15.20
2024-02-02T20:45:17.251Z,14.95
2024-02-02T20:47:44.575Z,12.63
2024-02-02T20:50:13.002Z,13.30
2024-02-02T20:52:40.256Z,13.43
2024-02-02T20:55:09.403Z,13.80
2024-02-02T20:57:36.728Z,15.55
2024-02-02T21:00:05.802Z,12.48
2024-02-02T21:02:34.617Z,12.55
2024-02-02T21:05:02.253Z,11.52
2024-02-02T21:07:29.379Z,15.52
2024-02-02T21:09:56.821Z,13.18
2024-02-02T21:12:24.622Z,13.77
2024-02-02T21:14:52.054Z,16.83
2024-02-02T21:17:19.339Z,9.95
2024-02-02T21:19:48.050Z,13.82
2024-02-02T21:22:15.583Z,14.75
2024-02-02T21:24:42.971Z,13.70
2024-02-02T21:27:10.949Z,12.70
2024-02-02T21:29:38.327Z,16.02
2024-02-02T21:32:05.532Z,11.65
2024-02-02T21:34:33.033Z,14.32
2024-02-02T21:37:01.566Z,13.65
2024-02-02T21:39:28.504Z,12.95
2024-02-02T21:41:55.689Z,14.15
2024-02-02T21:44:24.713Z,10.48
2024-02-02T21:46:52.081Z,13.73
2024-02-02T21:49:21.022Z,12.68
2024-02-02T21:51:48.215Z,12.95
2024-02-02T21:54:19.002Z,11.10
2024-02-02T21:56:46.297Z,11.13
2024-02-02T21:59:13.474Z,8.93
2024-02-02T22:01:43.934Z,11.05
2024-02-02T22:04:13.656Z,11.02
2024-02-02T22:06:40.952Z,14.10
2024-02-02T22:09:09.778Z,12.90
2024-02-02T22:11:38.182Z,12.73
2024-02-02T22:14:05.268Z,13.50
2024-02-02T22:16:33.193Z,15.80
2024-02-02T22:19:02.401Z,14.13
2024-02-02T22:21:30.341Z,14.38
2024-02-02T22:23:57.553Z,12.07
2024-02-02T22:26:24.741Z,13.27
2024-02-02T22:28:53.479Z,13.18
2024-02-02T22:31:21.742Z,12.68
2024-02-02T22:33:49.860Z,11.55
2024-02-02T22:36:18.688Z,13.38
2024-02-02T22:38:48.411Z,16.73
2024-02-02T22:41:28.886Z,13.95
2024-02-02T22:44:02.371Z,14.00
2024-02-02T22:46:31.178Z,13.85
2024-02-02T22:48:58.566Z,14.98
2024-02-02T22:51:26.087Z,13.02
2024-02-02T22:53:53.273Z,12.98
2024-02-02T22:56:20.477Z,11.30
2024-02-02T22:58:47.833Z,14.23
2024-02-02T23:01:16.646Z,14.60
2024-02-02T23:03:43.955Z,9.75
2024-02-02T23:06:11.553Z,12.20
2024-02-02T23:08:38.863Z,9.73
2024-02-02T23:11:05.976Z,12.35
2024-02-02T23:13:32.901Z,10.18
2024-02-02T23:16:02.557Z,8.82
2024-02-02T23:18:31.741Z,10.55
2024-02-02T23:21:00.935Z,11.02
2024-02-02T23:23:30.048Z,9.98
2024-02-02T23:25:57.409Z,8.77
2024-02-02T23:28:24.462Z,12.75
2024-02-02T23:30:51.973Z,8.90
2024-02-02T23:33:20.176Z,11.70
2024-02-02T23:35:48.967Z,8.70
2024-02-02T23:38:17.209Z,9.07
2024-02-02T23:40:44.788Z,10.35
2024-02-02T23:43:14.725Z,10.45
2024-02-02T23:45:42.323Z,7.80
2024-02-02T23:48:09.650Z,7.28
2024-02-02T23:50:36.890Z,9.07
2024-02-02T23:53:05.568Z,9.80
2024-02-02T23:55:32.737Z,10.98
2024-02-02T23:57:59.714Z,11.50
